createdAt,value
2022-10-24T00:01:46.626Z,101286.88
2022-10-24T00:04:14.913Z,101283.66
2022-10-24T00:06:43.382Z,101281.69
2022-10-24T00:09:11.946Z,101278.38
2022-10-24T00:11:43.399Z,101286.56
2022-10-24T00:14:11.566Z,101283.13
2022-10-24T00:16:39.560Z,101283.13
2022-10-24T00:19:09.030Z,101279.47
2022-10-24T00:21:37.138Z,101277.72
2022-10-24T00:24:05.686Z,101282.28
2022-10-24T00:26:34.067Z,101282.41
2022-10-24T00:29:02.289Z,101273.97
2022-10-24T00:31:30.413Z,101257.66
2022-10-24T00:33:59.924Z,101270.06
2022-10-24T00:36:29.937Z,101272.50
2022-10-24T00:38:58.036Z,101266.84
2022-10-24T00:41:28.076Z,101273.72
2022-10-24T00:44:14.733Z,101275.56
2022-10-24T00:46:45.643Z,101293.72
2022-10-24T00:49:17.745Z,101309.91
2022-10-24T00:51:49.832Z,101305.19
2022-10-24T00:54:18.839Z,101310.28
2022-10-24T00:56:55.371Z,101303.56
2022-10-24T00:59:25.036Z,101296.22
2022-10-24T01:01:53.676Z,101291.44
2022-10-24T01:04:21.893Z,101243.28
2022-10-24T01:07:02.972Z,101294.59
2022-10-24T01:09:50.917Z,101293.91
2022-10-24T01:12:32.033Z,101295.16
2022-10-24T01:15:08.647Z,101287.94
2022-10-24T01:17:43.655Z,101265.34
2022-10-24T01:20:35.565Z,101283.25
2022-10-24T01:23:31.406Z,101280.41
2022-10-24T01:26:12.414Z,101263.59
2022-10-24T01:28:50.858Z,101267.56
2022-10-24T01:31:28.070Z,101266.84
2022-10-24T01:34:03.559Z,101259.41
2022-10-24T01:36:39.783Z,101266.84
2022-10-24T01:39:14.234Z,101271.59
2022-10-24T01:41:45.018Z,101272.28
2022-10-24T01:44:19.060Z,101271.34
2022-10-24T01:46:53.505Z,101274.19
2022-10-24T01:49:24.494Z,101257.28
2022-10-24T01:51:57.650Z,101263.31
2022-10-24T01:54:26.037Z,101268.84
2022-10-24T01:56:54.101Z,101277.38
2022-10-24T01:59:46.988Z,101280.28
2022-10-24T02:02:21.075Z,101276.84
2022-10-24T02:04:56.066Z,101278.31
2022-10-24T02:07:25.577Z,101275.03
2022-10-24T02:09:58.810Z,101279.84
2022-10-24T02:12:28.576Z,101274.66
2022-10-24T02:15:01.163Z,101275.63
2022-10-24T02:17:30.944Z,101272.91
2022-10-24T02:20:00.559Z,101266.84
2022-10-24T02:22:31.969Z,101267.56
2022-10-24T02:25:06.299Z,101250.81
2022-10-24T02:27:40.100Z,101268.63
2022-10-24T02:30:13.539Z,101264.50
2022-10-24T02:32:45.441Z,101262.94
2022-10-24T02:35:17.381Z,101270.03
2022-10-24T02:37:49.183Z,101265.06
2022-10-24T02:40:19.987Z,101256.66
2022-10-24T02:42:50.181Z,101268.25
2022-10-24T02:45:19.551Z,101272.38
2022-10-24T02:47:50.056Z,101277.50
2022-10-24T02:50:18.659Z,101273.38
2022-10-24T02:52:47.933Z,101254.22
2022-10-24T02:55:16.242Z,101271.69
2022-10-24T02:57:44.611Z,101265.25
2022-10-24T03:00:13.953Z,101277.31
2022-10-24T03:02:42.121Z,101284.38
2022-10-24T03:05:13.026Z,101280.25
2022-10-24T03:07:41.102Z,101282.22
2022-10-24T03:10:09.819Z,101284.03
2022-10-24T03:12:37.981Z,101278.13
2022-10-24T03:15:07.446Z,101278.38
2022-10-24T03:17:35.619Z,101272.53
2022-10-24T03:20:03.638Z,101278.63
2022-10-24T03:22:33.289Z,101271.13
2022-10-24T03:25:03.936Z,101272.69
2022-10-24T03:27:34.165Z,101284.09
2022-10-24T03:30:02.461Z,101284.16
2022-10-24T03:32:30.655Z,101280.84
2022-10-24T03:34:58.638Z,101282.19
2022-10-24T03:37:27.196Z,101279.75
2022-10-24T03:39:57.185Z,101277.28
2022-10-24T03:42:25.227Z,101278.97
2022-10-24T03:44:53.294Z,101283.50
2022-10-24T03:47:21.313Z,101290.53
2022-10-24T03:49:49.391Z,101299.97
2022-10-24T03:52:17.630Z,101292.97
2022-10-24T03:54:45.948Z,101290.44
2022-10-24T03:57:15.728Z,101293.13
2022-10-24T03:59:44.157Z,101293.13
2022-10-24T04:02:13.551Z,101277.94
2022-10-24T04:04:42.257Z,101285.66
2022-10-24T04:07:10.374Z,101284.75
2022-10-24T04:09:38.589Z,101288.00
2022-10-24T04:12:07.204Z,101282.88
2022-10-24T04:14:36.714Z,101289.53
2022-10-24T04:17:04.841Z,101284.41
2022-10-24T04:19:33.186Z,101296.34
2022-10-24T04:22:01.491Z,101282.81
2022-10-24T04:24:29.731Z,101287.72
2022-10-24T04:26:58.413Z,101298.16
2022-10-24T04:29:26.631Z,101287.22
2022-10-24T04:31:56.299Z,101282.88
2022-10-24T04:34:24.443Z,101280.41
2022-10-24T04:36:52.570Z,101277.44
2022-10-24T04:39:21.294Z,101280.94
2022-10-24T04:41:49.396Z,101276.00
2022-10-24T04:44:17.375Z,101280.91
2022-10-24T04:46:49.259Z,101278.19
2022-10-24T04:49:20.856Z,101271.31
2022-10-24T04:51:48.944Z,101283.19
2022-10-24T04:54:17.194Z,101287.38
2022-10-24T04:56:45.243Z,101289.97
2022-10-24T04:59:13.469Z,101296.78
2022-10-24T05:01:41.894Z,101304.78
2022-10-24T05:04:10.065Z,101296.72
2022-10-24T05:06:42.713Z,101304.91
2022-10-24T05:09:13.047Z,101299.28
2022-10-24T05:11:41.155Z,101302.88
2022-10-24T05:14:09.345Z,101278.19
2022-10-24T05:16:38.266Z,101302.53
2022-10-24T05:19:06.383Z,101306.53
2022-10-24T05:21:34.657Z,101301.97
2022-10-24T05:24:04.196Z,101304.31
2022-10-24T05:26:32.387Z,101299.59
2022-10-24T05:29:00.502Z,101298.22
2022-10-24T05:31:28.758Z,101296.09
2022-10-24T05:33:57.198Z,101293.13
2022-10-24T05:36:25.257Z,101286.69
2022-10-24T05:38:53.382Z,101297.31
2022-10-24T05:41:23.078Z,101310.72
2022-10-24T05:43:51.419Z,101306.88
2022-10-24T05:46:19.860Z,101311.63
2022-10-24T05:48:48.408Z,101318.06
2022-10-24T05:51:16.507Z,101322.41
2022-10-24T05:53:44.579Z,101319.16
2022-10-24T05:56:12.782Z,101316.69
2022-10-24T05:58:42.696Z,101332.13
2022-10-24T06:01:10.877Z,101320.91
2022-10-24T06:03:39.733Z,101325.19
2022-10-24T06:06:10.894Z,101326.81
2022-10-24T06:08:39.817Z,101327.00
2022-10-24T06:11:10.787Z,101329.13
2022-10-24T06:13:39.722Z,101337.59
2022-10-24T06:16:11.730Z,101328.03
2022-10-24T06:18:41.349Z,101328.25
2022-10-24T06:21:10.870Z,101341.19
2022-10-24T06:23:39.087Z,101325.50
2022-10-24T06:26:10.218Z,101336.91
2022-10-24T06:28:38.821Z,101342.16
2022-10-24T06:31:09.054Z,101340.00
2022-10-24T06:33:37.169Z,101341.78
2022-10-24T06:36:09.538Z,101341.41
2022-10-24T06:38:38.267Z,101341.47
2022-10-24T06:41:11.245Z,101335.28
2022-10-24T06:43:39.904Z,101343.81
2022-10-24T06:46:10.577Z,101328.91
2022-10-24T06:48:39.310Z,101341.47
2022-10-24T06:51:07.985Z,101338.78
2022-10-24T06:53:36.260Z,101337.34
2022-10-24T06:56:06.776Z,101334.84
2022-10-24T06:58:37.331Z,101337.16
2022-10-24T07:01:11.451Z,101332.41
2022-10-24T07:03:40.363Z,101329.16
2022-10-24T07:06:09.458Z,101326.44
2022-10-24T07:08:38.046Z,101322.00
2022-10-24T07:11:06.557Z,101340.38
2022-10-24T07:13:34.754Z,101335.53
2022-10-24T07:16:03.292Z,101324.66
2022-10-24T07:18:33.592Z,101313.59
2022-10-24T07:21:06.472Z,101333.97
2022-10-24T07:23:35.688Z,101334.59
2022-10-24T07:26:05.096Z,101342.56
2022-10-24T07:28:33.692Z,101343.94
2022-10-24T07:31:02.869Z,101342.03
2022-10-24T07:33:32.994Z,101346.75
2022-10-24T07:36:01.595Z,101346.91
2022-10-24T07:38:29.642Z,101346.84
2022-10-24T07:40:57.848Z,101347.84
2022-10-24T07:43:26.145Z,101337.25
2022-10-24T07:45:54.312Z,101339.81
2022-10-24T07:48:22.699Z,101334.47
2022-10-24T07:50:52.270Z,101332.75
2022-10-24T07:53:21.042Z,101332.75
2022-10-24T07:55:49.210Z,101329.06
2022-10-24T07:58:17.604Z,101315.94
2022-10-24T08:00:47.420Z,101315.59
2022-10-24T08:03:15.855Z,101314.53
2022-10-24T08:05:44.902Z,101316.94
2022-10-24T08:11:03.160Z,101313.09
2022-10-24T08:13:31.298Z,101308.22
2022-10-24T08:15:59.598Z,101295.72
2022-10-24T08:18:30.274Z,101310.38
2022-10-24T08:21:00.034Z,101316.31
2022-10-24T08:23:30.012Z,101304.56
2022-10-24T08:25:58.262Z,101310.66
2022-10-24T08:28:26.691Z,101305.38
2022-10-24T08:30:59.237Z,101327.28
2022-10-24T08:33:28.372Z,101316.16
2022-10-24T08:36:00.910Z,101312.84
2022-10-24T08:38:31.297Z,101318.81
2022-10-24T08:41:00.044Z,101316.69
2022-10-24T08:43:28.551Z,101319.66
2022-10-24T08:46:06.792Z,101314.53
2022-10-24T08:48:43.810Z,101311.31
2022-10-24T08:51:22.899Z,101311.59
2022-10-24T08:53:56.552Z,101309.41
2022-10-24T08:56:28.970Z,101311.19
2022-10-24T08:58:58.693Z,101317.06
2022-10-24T09:01:33.589Z,101320.25
2022-10-24T09:04:06.086Z,101312.72
2022-10-24T09:06:34.218Z,101315.41
2022-10-24T09:09:06.425Z,101307.47
2022-10-24T09:11:45.402Z,101308.91
2022-10-24T09:14:15.243Z,101302.81
2022-10-24T09:16:44.786Z,101293.09
2022-10-24T09:19:16.469Z,101291.84
2022-10-24T09:21:45.885Z,101290.91
2022-10-24T09:24:25.257Z,101291.44
2022-10-24T09:26:54.402Z,101284.63
2022-10-24T09:29:23.169Z,101285.75
2022-10-24T09:31:51.342Z,101283.50
2022-10-24T09:34:19.538Z,101276.00
2022-10-24T09:36:48.304Z,101280.06
2022-10-24T09:39:41.729Z,101277.66
2022-10-24T09:42:22.130Z,101262.47
2022-10-24T09:44:50.230Z,101274.41
2022-10-24T09:47:27.873Z,101280.19
2022-10-24T09:49:56.773Z,101279.66
2022-10-24T09:52:29.344Z,101272.69
2022-10-24T09:55:19.691Z,101274.63
2022-10-24T09:57:48.868Z,101272.25
2022-10-24T10:00:27.135Z,101266.53
2022-10-24T10:03:02.274Z,101270.84
2022-10-24T10:05:44.635Z,101267.66
2022-10-24T10:08:18.612Z,101256.19
2022-10-24T10:10:57.951Z,101247.44
2022-10-24T10:13:28.286Z,101245.47
2022-10-24T10:15:58.135Z,101236.47
2022-10-24T10:18:34.179Z,101250.19
2022-10-24T10:21:15.081Z,101239.56
2022-10-24T10:23:45.889Z,101231.53
2022-10-24T10:26:20.162Z,101229.97
2022-10-24T10:28:58.073Z,101224.69
2022-10-24T10:31:30.079Z,101232.69
2022-10-24T10:34:16.080Z,101224.97
2022-10-24T10:37:00.428Z,101225.38
2022-10-24T10:39:46.842Z,101223.13
2022-10-24T10:42:20.634Z,101220.22
2022-10-24T10:45:01.143Z,101217.91
2022-10-24T10:47:38.230Z,101220.91
2022-10-24T10:50:26.508Z,101217.22
2022-10-24T10:53:02.022Z,101224.88
2022-10-24T10:55:36.631Z,101224.66
2022-10-24T10:58:21.957Z,101223.28
2022-10-24T11:01:01.883Z,101218.34
2022-10-24T11:03:39.058Z,101221.31
2022-10-24T11:06:21.127Z,101213.47
2022-10-24T11:09:19.132Z,101191.72
2022-10-24T11:11:52.678Z,101206.66
2022-10-24T11:14:28.047Z,101213.59
2022-10-24T11:17:00.268Z,101206.72
2022-10-24T11:19:33.789Z,101203.09
2022-10-24T11:22:06.577Z,101208.69
2022-10-24T11:24:40.546Z,101190.69
2022-10-24T11:27:14.886Z,101190.91
2022-10-24T11:29:55.339Z,101184.75
2022-10-24T11:32:33.700Z,101185.78
2022-10-24T11:35:07.509Z,101174.56
2022-10-24T11:37:38.474Z,101177.91
2022-10-24T11:40:11.926Z,101172.03
2022-10-24T11:42:43.623Z,101176.19
2022-10-24T11:45:16.620Z,101174.28
2022-10-24T11:48:03.672Z,101168.84
2022-10-24T11:50:37.838Z,101167.94
2022-10-24T11:53:17.871Z,101165.44
2022-10-24T11:55:53.743Z,101162.13
2022-10-24T11:58:25.154Z,101150.41
2022-10-24T12:01:38.775Z,101156.69
2022-10-24T12:04:26.268Z,101159.47
2022-10-24T12:07:23.046Z,101149.72
2022-10-24T12:10:08.363Z,101150.84
2022-10-24T12:13:05.474Z,101137.69
2022-10-24T12:15:47.199Z,101151.91
2022-10-24T12:18:30.323Z,101152.13
2022-10-24T12:21:02.832Z,101155.00
2022-10-24T12:23:32.090Z,101141.69
2022-10-24T12:26:05.776Z,101139.41
2022-10-24T12:28:33.950Z,101144.66
2022-10-24T12:31:26.150Z,101136.69
2022-10-24T12:34:48.841Z,101132.84
2022-10-24T12:37:36.008Z,101126.94
2022-10-24T12:40:37.438Z,101123.81
2022-10-24T12:43:27.785Z,101115.75
2022-10-24T12:45:56.270Z,101114.41
2022-10-24T12:48:36.490Z,101113.16
2022-10-24T12:51:22.373Z,101111.69
2022-10-24T12:54:16.072Z,101110.38
2022-10-24T12:57:23.183Z,101111.78
2022-10-24T12:59:53.022Z,101108.63
2022-10-24T13:02:35.279Z,101109.19
2022-10-24T13:05:18.486Z,101113.06
2022-10-24T13:08:09.686Z,101110.44
2022-10-24T13:11:04.549Z,101110.34
2022-10-24T13:13:48.958Z,101100.63
2022-10-24T13:16:30.365Z,101101.44
2022-10-24T13:19:10.648Z,101104.94
2022-10-24T13:21:48.511Z,101098.53
2022-10-24T13:24:36.761Z,101088.00
2022-10-24T13:27:38.148Z,101102.59
2022-10-24T13:30:26.426Z,101095.53
2022-10-24T13:33:28.249Z,101090.66
2022-10-24T13:35:57.990Z,101087.50
2022-10-24T13:38:27.501Z,101100.94
2022-10-24T13:40:57.171Z,101100.50
2022-10-24T13:43:25.342Z,101103.69
2022-10-24T13:45:59.233Z,101091.34
2022-10-24T13:48:30.384Z,101099.28
2022-10-24T13:51:07.148Z,101093.16
2022-10-24T13:53:46.348Z,101088.84
2022-10-24T13:56:16.570Z,101089.09
2022-10-24T13:58:46.467Z,101082.03
2022-10-24T14:01:20.313Z,101079.41
2022-10-24T14:03:50.705Z,101073.41
2022-10-24T14:06:25.946Z,101077.69
2022-10-24T14:09:05.815Z,101073.13
2022-10-24T14:11:42.059Z,101064.50
2022-10-24T14:14:25.759Z,101063.81
2022-10-24T14:17:07.909Z,101072.81
2022-10-24T14:19:39.254Z,101071.84
2022-10-24T14:22:21.082Z,101059.25
2022-10-24T14:24:50.065Z,101063.69
2022-10-24T14:27:21.511Z,101059.69
2022-10-24T14:29:59.913Z,101072.06
2022-10-24T14:32:30.786Z,101064.81
2022-10-24T14:37:33.234Z,101066.06
2022-10-24T14:40:01.918Z,101058.44
2022-10-24T14:42:32.473Z,101060.38
2022-10-24T14:45:00.828Z,101064.94
2022-10-24T14:47:31.328Z,101064.66
2022-10-24T14:49:59.942Z,101062.41
2022-10-24T14:52:32.416Z,101056.72
2022-10-24T14:55:04.489Z,101059.06
2022-10-24T14:57:36.512Z,101055.84
2022-10-24T15:00:08.578Z,101053.28
2022-10-24T15:02:42.147Z,101053.38
2022-10-24T15:05:28.282Z,101051.84
2022-10-24T15:10:49.049Z,101050.25
2022-10-24T15:13:21.836Z,101057.78
2022-10-24T15:15:55.261Z,101054.16
2022-10-24T15:18:25.273Z,101051.91
2022-10-24T15:20:55.528Z,101057.69
2022-10-24T15:23:28.164Z,101051.13
2022-10-24T15:26:02.713Z,101043.72
2022-10-24T15:28:45.774Z,101048.41
2022-10-24T15:31:14.779Z,101051.16
2022-10-24T15:33:43.447Z,101045.19
2022-10-24T15:36:19.123Z,101047.63
2022-10-24T15:38:48.665Z,101050.81
2022-10-24T15:41:17.253Z,101046.81
2022-10-24T15:43:46.968Z,101046.25
2022-10-24T15:46:15.053Z,101040.53
2022-10-24T15:48:43.283Z,101048.81
2022-10-24T15:51:15.345Z,101049.28
2022-10-24T15:53:43.582Z,101050.63
2022-10-24T15:56:12.886Z,101059.94
2022-10-24T15:58:41.409Z,101055.66
2022-10-24T16:01:23.981Z,101052.09
2022-10-24T16:03:52.195Z,101055.94
2022-10-24T16:06:20.945Z,101062.59
2022-10-24T16:08:49.435Z,101049.22
2022-10-24T16:11:18.067Z,101060.56
2022-10-24T16:13:47.317Z,101056.63
2022-10-24T16:16:16.783Z,101055.31
2022-10-24T16:18:45.261Z,101057.25
2022-10-24T16:21:17.974Z,101064.22
2022-10-24T16:23:46.313Z,101067.06
2022-10-24T16:26:15.203Z,101072.78
2022-10-24T16:28:44.119Z,101072.53
2022-10-24T16:31:18.740Z,101068.25
2022-10-24T16:33:48.299Z,101071.97
2022-10-24T16:36:18.479Z,101070.63
2022-10-24T16:38:49.237Z,101068.94
2022-10-24T16:41:18.470Z,101072.25
2022-10-24T16:43:50.011Z,101076.88
2022-10-24T16:46:20.139Z,101078.19
2022-10-24T16:48:50.467Z,101068.41
2022-10-24T16:51:20.953Z,101062.63
2022-10-24T16:53:48.980Z,101064.13
2022-10-24T16:56:17.398Z,101069.38
2022-10-24T16:58:45.621Z,101067.44
2022-10-24T17:01:16.470Z,101077.34
2022-10-24T17:03:46.145Z,101084.09
2022-10-24T17:06:16.099Z,101080.47
2022-10-24T17:08:44.350Z,101079.00
2022-10-24T17:11:39.361Z,101072.94
2022-10-24T17:14:01.467Z,101077.47
2022-10-24T17:16:29.559Z,101078.63
2022-10-24T17:19:14.778Z,101082.19
2022-10-24T17:21:48.035Z,101079.59
2022-10-24T17:24:18.285Z,101081.72
2022-10-24T17:26:46.578Z,101069.78
2022-10-24T17:29:23.870Z,101072.44
2022-10-24T17:31:52.054Z,101073.38
2022-10-24T17:34:20.560Z,101075.16
2022-10-24T17:36:58.107Z,101056.25
2022-10-24T17:39:28.934Z,101065.88
2022-10-24T17:41:57.335Z,101067.75
2022-10-24T17:44:26.105Z,101065.03
2022-10-24T17:46:58.234Z,101064.09
2022-10-24T17:49:26.979Z,101061.38
2022-10-24T17:51:56.706Z,101061.59
2022-10-24T17:54:24.800Z,101056.16
2022-10-24T17:56:52.946Z,101061.00
2022-10-24T17:59:22.038Z,101058.25
2022-10-24T18:01:50.604Z,101058.38
2022-10-24T18:04:18.844Z,101058.97
2022-10-24T18:06:46.925Z,101053.97
2022-10-24T18:09:16.460Z,101052.81
2022-10-24T18:11:44.818Z,101057.53
2022-10-24T18:14:12.881Z,101048.97
2022-10-24T18:16:41.383Z,101056.50
2022-10-24T18:19:09.729Z,101049.03
2022-10-24T18:21:38.023Z,101058.34
2022-10-24T18:24:08.767Z,101046.53
2022-10-24T18:26:38.277Z,101059.28
2022-10-24T18:29:06.554Z,101053.34
2022-10-24T18:31:35.255Z,101053.34
2022-10-24T18:34:07.548Z,101037.44
2022-10-24T18:36:37.163Z,101049.03
2022-10-24T18:39:05.667Z,101045.59
2022-10-24T18:41:46.723Z,101041.19
2022-10-24T18:44:26.437Z,101044.88
2022-10-24T18:46:56.443Z,101040.16
2022-10-24T18:49:25.397Z,101045.19
2022-10-24T18:52:01.495Z,101038.53
2022-10-24T18:54:31.306Z,101032.78
2022-10-24T18:57:01.073Z,101036.16
2022-10-24T18:59:31.020Z,101035.66
2022-10-24T19:02:19.368Z,101035.81
2022-10-24T19:04:53.797Z,101035.53
2022-10-24T19:07:22.410Z,101020.50
2022-10-24T19:09:50.579Z,101011.94
2022-10-24T19:12:20.345Z,101039.28
2022-10-24T19:14:48.878Z,101016.50
2022-10-24T19:17:17.158Z,101036.31
2022-10-24T19:19:45.342Z,101024.09
2022-10-24T19:22:13.721Z,101029.81
2022-10-24T19:24:41.788Z,101036.69
2022-10-24T19:27:09.958Z,101019.13
2022-10-24T19:29:39.717Z,101022.44
2022-10-24T19:32:08.041Z,101029.78
2022-10-24T19:34:36.205Z,101027.31
2022-10-24T19:37:04.566Z,101023.81
2022-10-24T19:39:34.002Z,101024.22
2022-10-24T19:42:02.292Z,101033.00
2022-10-24T19:44:30.463Z,101023.69
2022-10-24T19:47:00.127Z,101024.41
2022-10-24T19:49:28.232Z,101023.69
2022-10-24T19:51:57.118Z,101016.78
2022-10-24T19:54:25.202Z,101021.16
2022-10-24T19:56:54.610Z,101017.25
2022-10-24T19:59:22.903Z,101017.88
2022-10-24T20:01:50.948Z,101003.03
2022-10-24T20:04:20.989Z,101012.03
2022-10-24T20:06:49.386Z,101007.97
2022-10-24T20:09:17.864Z,101012.78
2022-10-24T20:11:45.917Z,101017.66
2022-10-24T20:14:14.055Z,101001.31
2022-10-24T20:16:42.310Z,100993.19
2022-10-24T20:19:10.306Z,101001.56
2022-10-24T20:21:39.790Z,100999.44
2022-10-24T20:24:08.881Z,100982.41
2022-10-24T20:26:37.109Z,100998.09
2022-10-24T20:29:05.732Z,101000.69
2022-10-24T20:31:35.921Z,101000.06
2022-10-24T20:34:09.894Z,100990.03
2022-10-24T20:36:40.234Z,100993.69
2022-10-24T20:39:09.378Z,100983.75
2022-10-24T20:41:37.818Z,100987.28
2022-10-24T20:44:07.309Z,100989.53
2022-10-24T20:46:35.881Z,100990.75
2022-10-24T20:49:04.777Z,100980.41
2022-10-24T20:51:32.923Z,100977.59
2022-10-24T20:54:02.800Z,100973.84
2022-10-24T20:56:30.968Z,100978.47
2022-10-24T20:58:59.054Z,100978.38
2022-10-24T21:01:30.124Z,100975.75
2022-10-24T21:03:59.489Z,100985.13
2022-10-24T21:06:29.527Z,100964.25
2022-10-24T21:08:59.500Z,100982.84
2022-10-24T21:11:31.233Z,100982.41
2022-10-24T21:14:01.956Z,100979.88
2022-10-24T21:16:30.603Z,100970.31
2022-10-24T21:18:58.945Z,100966.38
2022-10-24T21:21:27.456Z,100966.38
2022-10-24T21:23:59.644Z,100970.03
2022-10-24T21:26:32.246Z,100966.13
2022-10-24T21:29:14.574Z,100969.69
2022-10-24T21:31:50.033Z,100963.22
2022-10-24T21:34:18.270Z,100966.25
2022-10-24T21:36:46.966Z,100969.75
2022-10-24T21:39:16.776Z,100961.75
2022-10-24T21:41:46.526Z,100961.75
2022-10-24T21:44:15.424Z,100965.91
2022-10-24T21:46:43.564Z,100963.41
2022-10-24T21:49:12.317Z,100959.03
2022-10-24T21:51:41.544Z,100953.81
2022-10-24T21:54:17.239Z,100952.88
2022-10-24T21:56:47.099Z,100959.03
2022-10-24T21:59:16.991Z,100952.13
2022-10-24T22:01:46.757Z,100954.13
2022-10-24T22:04:15.647Z,100949.44
2022-10-24T22:06:44.704Z,100953.19
2022-10-24T22:09:14.962Z,100939.09
2022-10-24T22:11:43.485Z,100950.69
2022-10-24T22:14:15.022Z,100956.03
2022-10-24T22:16:43.929Z,100947.75
2022-10-24T22:19:13.739Z,100957.16
2022-10-24T22:21:43.889Z,100953.31
2022-10-24T22:24:14.794Z,100952.03
2022-10-24T22:26:43.915Z,100951.94
2022-10-24T22:29:16.556Z,100951.75
2022-10-24T22:31:45.887Z,100952.78
2022-10-24T22:34:17.966Z,100953.50
2022-10-24T22:36:56.169Z,100957.47
2022-10-24T22:39:26.501Z,100956.94
2022-10-24T22:41:55.595Z,100952.97
2022-10-24T22:44:25.989Z,100948.88
2022-10-24T22:47:35.933Z,100947.22
2022-10-24T22:50:13.984Z,100942.94
2022-10-24T22:52:42.860Z,100937.41
2022-10-24T22:55:21.043Z,100936.03
2022-10-24T22:57:50.079Z,100940.31
2022-10-24T23:00:21.317Z,100935.28
2022-10-24T23:02:52.369Z,100935.09
2022-10-24T23:05:30.149Z,100932.78
2022-10-24T23:08:04.897Z,100931.25
2022-10-24T23:10:33.503Z,100934.06
2022-10-24T23:13:02.272Z,100927.75
2022-10-24T23:15:33.362Z,100937.59
2022-10-24T23:18:01.837Z,100937.88
2022-10-24T23:20:36.382Z,100937.72
2022-10-24T23:23:24.620Z,100936.72
2022-10-24T23:26:00.801Z,100941.00
2022-10-24T23:28:37.436Z,100942.38
2022-10-24T23:31:08.798Z,100943.31
2022-10-24T23:33:37.428Z,100936.22
2022-10-24T23:36:06.154Z,100937.72
2022-10-24T23:38:34.964Z,100928.41
2022-10-24T23:41:04.199Z,100936.34
2022-10-24T23:43:33.202Z,100941.47
2022-10-24T23:46:06.449Z,100943.25
2022-10-24T23:48:56.981Z,100942.72
2022-10-24T23:51:31.244Z,100944.91
2022-10-24T23:53:59.968Z,100946.09
2022-10-24T23:56:30.738Z,100945.53
2022-10-24T23:58:58.813Z,100947.97
